createdAt,value
2018-11-14T00:00:55.350Z,7.00
2018-11-14T00:03:24.841Z,6.77
2018-11-14T00:05:55.382Z,7.80
2018-11-14T00:08:26.008Z,7.07
2018-11-14T00:10:55.648Z,7.57
2018-11-14T00:13:26.233Z,6.50
2018-11-14T00:15:56.428Z,6.97
2018-11-14T00:18:26.384Z,6.63
2018-11-14T00:20:55.979Z,7.33
2018-11-14T00:23:26.337Z,7.10
2018-11-14T00:25:56.100Z,7.07
2018-11-14T00:28:26.130Z,7.13
2018-11-14T00:30:55.535Z,7.40
2018-11-14T00:33:24.996Z,6.67
2018-11-14T00:35:54.594Z,7.33
2018-11-14T00:38:23.850Z,6.97
2018-11-14T00:40:53.444Z,7.23
2018-11-14T00:43:36.716Z,7.17
2018-11-14T00:46:05.629Z,6.70
2018-11-14T00:48:34.455Z,6.37
2018-11-14T00:51:04.113Z,7.80
2018-11-14T00:53:33.840Z,7.07
2018-11-14T00:56:02.625Z,7.40
2018-11-14T00:58:32.122Z,7.00
2018-11-14T01:01:02.285Z,7.70
2018-11-14T01:03:31.796Z,6.87
2018-11-14T01:06:00.612Z,6.70
2018-11-14T01:08:30.892Z,6.70
2018-11-14T01:11:00.137Z,7.40
2018-11-14T01:13:29.463Z,7.00
2018-11-14T01:15:58.905Z,7.70
2018-11-14T01:18:27.735Z,6.93
2018-11-14T01:20:56.556Z,6.97
2018-11-14T01:23:27.590Z,6.90
2018-11-14T01:25:56.432Z,7.33
2018-11-14T01:28:27.448Z,7.40
2018-11-14T01:30:56.220Z,7.67
2018-11-14T01:33:26.110Z,7.33
2018-11-14T01:35:55.572Z,7.37
2018-11-14T01:38:25.030Z,7.33
2018-11-14T01:40:54.678Z,8.13
2018-11-14T01:43:24.512Z,7.60
2018-11-14T01:45:53.934Z,7.27
2018-11-14T01:48:23.184Z,7.13
2018-11-14T01:50:54.593Z,7.40
2018-11-14T01:53:24.687Z,7.70
2018-11-14T01:55:55.229Z,7.67
2018-11-14T01:58:24.329Z,7.37
2018-11-14T02:00:54.306Z,7.30
2018-11-14T02:03:24.455Z,7.73
2018-11-14T02:05:53.993Z,7.87
2018-11-14T02:08:24.270Z,8.47
2018-11-14T02:10:54.710Z,6.83
2018-11-14T02:13:24.473Z,7.40
2018-11-14T02:15:54.906Z,7.47
2018-11-14T02:18:25.521Z,7.40
2018-11-14T02:20:54.855Z,7.07
2018-11-14T02:23:24.293Z,7.00
2018-11-14T02:25:54.185Z,8.03
2018-11-14T02:28:23.896Z,7.57
2018-11-14T02:30:53.422Z,7.83
2018-11-14T02:33:23.573Z,7.13
2018-11-14T02:35:52.742Z,7.67
2018-11-14T02:38:22.377Z,7.17
2018-11-14T02:40:51.499Z,7.10
2018-11-14T02:43:20.302Z,7.07
2018-11-14T02:45:49.115Z,7.57
2018-11-14T02:48:17.952Z,6.77
2018-11-14T02:50:47.798Z,8.00
2018-11-14T02:53:16.653Z,6.93
2018-11-14T02:55:47.132Z,7.10
2018-11-14T02:58:15.893Z,7.10
2018-11-14T03:00:45.506Z,6.37
2018-11-14T03:03:15.025Z,7.43
2018-11-14T03:05:44.610Z,6.80
2018-11-14T03:08:13.904Z,6.97
2018-11-14T03:10:43.366Z,7.00
2018-11-14T03:13:13.208Z,7.60
2018-11-14T03:15:42.544Z,6.63
2018-11-14T03:18:11.314Z,8.20
2018-11-14T03:20:40.651Z,7.63
2018-11-14T03:23:09.418Z,7.23
2018-11-14T03:25:38.797Z,6.90
2018-11-14T03:28:07.631Z,6.53
2018-11-14T03:30:36.458Z,6.53
2018-11-14T03:33:05.570Z,5.10
2018-11-14T03:35:39.635Z,5.00
2018-11-14T03:38:08.422Z,4.80
2018-11-14T03:40:38.461Z,4.70
2018-11-14T03:43:07.728Z,4.80
2018-11-14T03:45:36.570Z,4.57
2018-11-14T03:48:05.433Z,4.60
2018-11-14T03:50:34.922Z,4.60
2018-11-14T03:53:04.575Z,4.50
2018-11-14T03:55:33.385Z,4.20
2018-11-14T03:58:02.215Z,4.40
2018-11-14T04:00:31.509Z,4.03
2018-11-14T04:03:00.812Z,4.57
2018-11-14T04:05:30.322Z,4.10
2018-11-14T04:07:59.663Z,4.17
2018-11-14T04:10:29.636Z,3.60
2018-11-14T04:12:59.473Z,4.50
2018-11-14T04:15:28.945Z,4.40
2018-11-14T04:17:57.737Z,3.90
2018-11-14T04:20:27.006Z,3.77
2018-11-14T04:22:55.847Z,4.10
2018-11-14T04:25:25.366Z,4.03
2018-11-14T04:27:54.584Z,3.90
2018-11-14T04:30:23.985Z,4.10
2018-11-14T04:32:53.074Z,4.83
2018-11-14T04:35:22.644Z,4.30
2018-11-14T04:37:53.659Z,5.17
2018-11-14T04:40:23.690Z,4.27
2018-11-14T04:42:52.986Z,5.57
2018-11-14T04:45:23.845Z,5.30
2018-11-14T04:47:53.394Z,5.77
2018-11-14T04:50:24.619Z,5.57
2018-11-14T04:52:55.077Z,6.53
2018-11-14T04:55:25.551Z,5.57
2018-11-14T04:57:55.379Z,5.67
2018-11-14T05:00:27.015Z,6.00
2018-11-14T05:02:56.602Z,5.33
2018-11-14T05:05:26.235Z,5.63
2018-11-14T05:07:56.607Z,6.03
2018-11-14T05:10:27.315Z,5.40
2018-11-14T05:12:56.225Z,5.53
2018-11-14T05:15:26.954Z,5.30
2018-11-14T05:17:57.028Z,5.23
2018-11-14T05:20:26.877Z,5.60
2018-11-14T05:22:55.671Z,6.30
2018-11-14T05:25:24.827Z,5.47
2018-11-14T05:27:54.854Z,6.13
2018-11-14T05:30:24.478Z,6.47
2018-11-14T05:32:54.296Z,5.87
2018-11-14T05:35:23.926Z,5.90
2018-11-14T05:37:53.633Z,6.07
2018-11-14T05:40:23.785Z,5.77
2018-11-14T05:42:53.972Z,6.30
2018-11-14T05:45:24.598Z,5.67
2018-11-14T05:47:54.493Z,7.10
2018-11-14T05:50:25.126Z,5.60
2018-11-14T05:52:56.053Z,5.70
2018-11-14T05:55:25.666Z,5.60
2018-11-14T05:57:55.486Z,6.03
2018-11-14T06:00:29.856Z,5.10
2018-11-14T06:03:01.240Z,6.90
2018-11-14T06:05:30.737Z,6.03
2018-11-14T06:07:59.581Z,5.97
2018-11-14T06:13:05.993Z,6.13
2018-11-14T06:15:35.616Z,6.30
2018-11-14T06:18:10.142Z,6.63
2018-11-14T06:20:39.769Z,5.97
2018-11-14T06:23:08.858Z,6.80
2018-11-14T06:25:38.662Z,6.43
2018-11-14T06:28:08.754Z,6.47
2018-11-14T06:30:38.076Z,6.10
2018-11-14T06:33:12.580Z,6.53
2018-11-14T06:35:41.375Z,6.10
2018-11-14T06:38:10.182Z,6.13
2018-11-14T06:40:39.080Z,5.30
2018-11-14T06:43:08.251Z,5.57
2018-11-14T06:45:38.270Z,5.80
2018-11-14T06:48:08.659Z,5.30
2018-11-14T06:50:38.244Z,7.10
2018-11-14T06:53:08.072Z,5.67
2018-11-14T06:55:36.855Z,6.10
2018-11-14T06:58:05.718Z,5.90
2018-11-14T07:00:35.899Z,5.87
2018-11-14T07:03:12.259Z,6.37
2018-11-14T07:05:42.078Z,5.10
2018-11-14T07:08:11.681Z,5.03
2018-11-14T07:10:41.125Z,5.33
2018-11-14T07:13:13.942Z,6.00
2018-11-14T07:15:43.861Z,5.40
2018-11-14T07:18:13.088Z,5.00
2018-11-14T07:20:43.962Z,5.23
2018-11-14T07:23:12.750Z,4.97
2018-11-14T07:25:41.595Z,4.63
2018-11-14T07:28:17.789Z,4.43
2018-11-14T07:30:46.781Z,4.57
2018-11-14T07:33:15.718Z,4.10
2018-11-14T07:35:44.945Z,5.13
2018-11-14T07:38:48.343Z,4.47
2018-11-14T07:41:30.350Z,4.30
2018-11-14T07:43:59.853Z,4.50
2018-11-14T07:46:29.785Z,3.93
2018-11-14T07:48:58.692Z,3.70
2018-11-14T07:51:28.596Z,4.07
2018-11-14T07:53:58.585Z,4.00
2018-11-14T07:56:27.538Z,3.80
2018-11-14T07:58:56.693Z,4.33
2018-11-14T08:01:26.228Z,3.60
2018-11-14T08:03:55.913Z,3.37
2018-11-14T08:09:01.912Z,3.83
2018-11-14T08:11:30.758Z,3.33
2018-11-14T08:14:00.694Z,4.00
2018-11-14T08:16:30.097Z,3.20
2018-11-14T08:18:59.626Z,3.93
2018-11-14T08:21:32.330Z,3.23
2018-11-14T08:24:01.118Z,3.80
2018-11-14T08:26:29.911Z,2.73
2018-11-14T08:28:59.551Z,3.20
2018-11-14T08:31:28.440Z,3.60
2018-11-14T08:33:57.426Z,3.23
2018-11-14T08:36:26.246Z,3.00
2018-11-14T08:38:55.425Z,3.23
2018-11-14T08:41:25.995Z,3.00
2018-11-14T08:43:55.912Z,3.70
2018-11-14T08:46:25.676Z,4.10
2018-11-14T08:48:55.226Z,3.23
2018-11-14T08:51:25.747Z,3.13
2018-11-14T08:53:56.394Z,3.87
2018-11-14T08:56:25.473Z,3.00
2018-11-14T08:58:55.299Z,3.33
2018-11-14T09:01:26.333Z,2.53
2018-11-14T09:03:57.394Z,2.97
2018-11-14T09:06:27.078Z,2.60
2018-11-14T09:08:56.549Z,3.90
2018-11-14T09:11:25.784Z,2.50
2018-11-14T09:13:55.351Z,2.50
2018-11-14T09:16:25.633Z,2.50
2018-11-14T09:18:55.401Z,2.50
2018-11-14T09:21:24.883Z,2.40
2018-11-14T09:23:54.798Z,2.30
2018-11-14T09:26:24.254Z,2.30
2018-11-14T09:28:53.830Z,2.67
2018-11-14T09:31:23.111Z,2.60
2018-11-14T09:33:52.934Z,3.37
2018-11-14T09:36:21.880Z,2.03
2018-11-14T09:38:52.206Z,2.60
2018-11-14T09:41:21.101Z,2.30
2018-11-14T09:43:50.015Z,2.40
2018-11-14T09:46:18.825Z,2.10
2018-11-14T09:48:47.651Z,2.20
2018-11-14T09:51:17.078Z,2.10
2018-11-14T09:53:46.300Z,2.70
2018-11-14T09:56:15.141Z,1.97
2018-11-14T09:58:44.008Z,2.77
2018-11-14T10:01:13.528Z,2.20
2018-11-14T10:03:43.120Z,2.83
2018-11-14T10:06:12.525Z,2.33
2018-11-14T10:08:41.326Z,2.60
2018-11-14T10:11:10.853Z,1.90
2018-11-14T10:13:39.683Z,2.13
2018-11-14T10:16:09.432Z,2.50
2018-11-14T10:18:38.219Z,1.97
2018-11-14T10:21:08.508Z,2.73
2018-11-14T10:23:37.286Z,1.47
2018-11-14T10:26:06.117Z,1.83
2018-11-14T10:28:34.972Z,1.90
2018-11-14T10:31:03.879Z,1.90
2018-11-14T10:33:32.846Z,1.83
2018-11-14T10:36:03.021Z,1.80
2018-11-14T10:38:31.868Z,1.40
2018-11-14T10:41:00.705Z,1.53
2018-11-14T10:43:29.613Z,1.50
2018-11-14T10:45:58.488Z,1.83
2018-11-14T10:48:27.463Z,1.40
2018-11-14T10:50:57.480Z,1.43
2018-11-14T10:53:26.966Z,1.50
2018-11-14T10:55:56.809Z,1.80
2018-11-14T10:58:26.256Z,1.90
2018-11-14T11:01:03.950Z,1.70
2018-11-14T11:03:40.460Z,2.10
2018-11-14T11:06:15.296Z,2.50
2018-11-14T11:08:49.422Z,1.70
2018-11-14T11:13:26.459Z,1.70
2018-11-14T11:16:01.235Z,1.90
2018-11-14T11:18:31.709Z,1.70
2018-11-14T11:21:01.293Z,1.90
2018-11-14T11:23:30.235Z,1.80
2018-11-14T11:25:59.724Z,1.87
2018-11-14T11:28:28.670Z,1.60
2018-11-14T11:30:57.700Z,2.00
2018-11-14T11:33:27.165Z,1.67
2018-11-14T11:35:58.226Z,1.60
2018-11-14T11:38:27.497Z,1.73
2018-11-14T11:40:56.600Z,1.60
2018-11-14T11:43:25.705Z,1.50
2018-11-14T11:45:55.734Z,1.63
2018-11-14T11:48:26.698Z,1.70
2018-11-14T11:50:56.350Z,2.40
2018-11-14T11:53:26.303Z,1.53
2018-11-14T11:55:56.124Z,1.67
2018-11-14T11:58:25.856Z,1.20
2018-11-14T12:01:05.345Z,1.77
2018-11-14T12:03:35.243Z,1.53
2018-11-14T12:06:06.027Z,1.60
2018-11-14T12:08:35.043Z,1.50
2018-11-14T12:11:05.162Z,2.00
2018-11-14T12:13:34.208Z,1.97
2018-11-14T12:16:04.421Z,1.93
2018-11-14T12:18:33.560Z,1.67
2018-11-14T12:21:03.531Z,2.50
2018-11-14T12:23:32.457Z,1.70
2018-11-14T12:26:01.758Z,1.80
2018-11-14T12:28:30.861Z,1.53
2018-11-14T12:31:00.532Z,2.10
2018-11-14T12:33:29.864Z,1.70
2018-11-14T12:38:44.996Z,1.70
2018-11-14T12:41:14.520Z,1.80
2018-11-14T12:43:43.463Z,1.80
2018-11-14T12:46:12.620Z,1.83
2018-11-14T12:48:41.802Z,2.07
2018-11-14T12:51:14.462Z,1.83
2018-11-14T12:53:43.900Z,1.57
2018-11-14T12:56:27.378Z,1.20
2018-11-14T12:58:56.213Z,1.57
2018-11-14T13:01:26.661Z,1.50
2018-11-14T13:03:55.954Z,1.60
2018-11-14T13:06:27.080Z,2.00
2018-11-14T13:08:56.875Z,1.53
2018-11-14T13:11:29.181Z,2.43
2018-11-14T13:13:58.134Z,1.30
2018-11-14T13:16:28.401Z,1.97
2018-11-14T13:18:58.200Z,1.60
2018-11-14T13:21:27.503Z,2.10
2018-11-14T13:23:56.507Z,1.73
2018-11-14T13:26:27.094Z,1.70
2018-11-14T13:28:56.680Z,1.33
2018-11-14T13:31:25.673Z,1.47
2018-11-14T13:33:55.219Z,1.57
2018-11-14T13:36:25.865Z,1.70
2018-11-14T13:38:55.618Z,1.70
2018-11-14T13:41:25.458Z,1.90
2018-11-14T13:43:55.024Z,2.00
2018-11-14T13:46:24.238Z,1.90
2018-11-14T13:48:54.371Z,1.57
2018-11-14T13:51:25.086Z,1.73
2018-11-14T13:53:55.248Z,1.60
2018-11-14T13:56:25.219Z,2.03
2018-11-14T13:58:54.768Z,2.43
2018-11-14T14:01:25.246Z,2.13
2018-11-14T14:03:55.767Z,1.87
2018-11-14T14:06:26.011Z,2.10
2018-11-14T14:08:56.472Z,2.03
2018-11-14T14:11:25.316Z,2.07
2018-11-14T14:14:00.346Z,2.10
2018-11-14T14:16:31.080Z,1.50
2018-11-14T14:19:00.472Z,1.50
2018-11-14T14:21:29.227Z,1.57
2018-11-14T14:23:58.651Z,1.80
2018-11-14T14:26:28.226Z,1.60
2018-11-14T14:28:57.152Z,1.90
2018-11-14T14:31:25.923Z,1.70
2018-11-14T14:33:55.701Z,1.93
2018-11-14T14:36:25.277Z,1.87
2018-11-14T14:38:55.366Z,2.57
2018-11-14T14:41:24.819Z,1.60
2018-11-14T14:43:54.320Z,1.83
2018-11-14T14:46:23.605Z,1.60
2018-11-14T14:48:53.825Z,1.90
2018-11-14T14:51:24.083Z,1.80
2018-11-14T14:53:54.384Z,2.10
2018-11-14T14:56:23.836Z,1.83
2018-11-14T14:58:52.916Z,2.67
2018-11-14T15:01:23.131Z,1.67
2018-11-14T15:03:54.201Z,2.10
2018-11-14T15:06:24.566Z,1.80
2018-11-14T15:08:54.971Z,2.47
2018-11-14T15:11:24.445Z,2.00
2018-11-14T15:13:54.253Z,2.03
2018-11-14T15:16:24.018Z,2.10
2018-11-14T15:19:06.871Z,2.10
2018-11-14T15:21:36.294Z,2.13
2018-11-14T15:24:05.895Z,2.23
2018-11-14T15:26:34.697Z,2.67
2018-11-14T15:29:03.748Z,2.90
2018-11-14T15:31:32.512Z,2.47
2018-11-14T15:34:01.343Z,2.30
2018-11-14T15:36:30.274Z,2.50
2018-11-14T15:38:59.654Z,2.17
2018-11-14T15:41:28.461Z,2.30
2018-11-14T15:43:58.523Z,2.90
2018-11-14T15:46:27.403Z,2.10
2018-11-14T15:48:56.702Z,2.10
2018-11-14T15:51:25.551Z,2.23
2018-11-14T15:53:55.817Z,2.40
2018-11-14T15:56:25.083Z,2.30
2018-11-14T15:58:54.670Z,2.30
2018-11-14T16:01:25.067Z,2.00
2018-11-14T16:03:55.395Z,2.47
2018-11-14T16:06:26.156Z,2.17
2018-11-14T16:08:56.885Z,1.93
2018-11-14T16:11:25.730Z,2.23
2018-11-14T16:14:00.002Z,2.33
2018-11-14T16:16:30.551Z,1.77
2018-11-14T16:19:00.361Z,2.40
2018-11-14T16:21:29.774Z,2.70
2018-11-14T16:23:59.580Z,2.00
2018-11-14T16:26:28.388Z,2.47
2018-11-14T16:28:57.323Z,1.70
2018-11-14T16:31:26.254Z,2.13
2018-11-14T16:33:55.269Z,2.13
2018-11-14T16:36:25.141Z,2.20
2018-11-14T16:38:55.074Z,2.23
2018-11-14T16:41:24.911Z,2.50
2018-11-14T16:43:54.471Z,2.30
2018-11-14T16:46:23.966Z,2.40
2018-11-14T16:48:54.019Z,2.10
2018-11-14T16:51:24.787Z,3.00
2018-11-14T16:53:55.049Z,2.47
2018-11-14T16:56:24.717Z,2.30
2018-11-14T16:58:54.478Z,2.80
2018-11-14T17:01:24.753Z,2.87
2018-11-14T17:03:54.425Z,2.70
2018-11-14T17:06:24.771Z,4.07
2018-11-14T17:08:54.450Z,2.33
2018-11-14T17:11:26.095Z,2.40
2018-11-14T17:13:55.543Z,2.33
2018-11-14T17:16:26.427Z,2.60
2018-11-14T17:18:56.345Z,2.20
2018-11-14T17:21:25.467Z,2.67
2018-11-14T17:23:55.645Z,2.30
2018-11-14T17:26:25.688Z,2.50
2018-11-14T17:28:55.610Z,2.07
2018-11-14T17:31:25.875Z,2.20
2018-11-14T17:33:55.717Z,2.00
2018-11-14T17:36:25.511Z,2.10
2018-11-14T17:38:55.106Z,2.20
2018-11-14T17:41:24.474Z,3.70
2018-11-14T17:43:53.952Z,2.00
2018-11-14T17:46:24.149Z,2.60
2018-11-14T17:48:54.022Z,2.43
2018-11-14T17:51:23.453Z,2.83
2018-11-14T17:53:54.600Z,2.20
2018-11-14T17:56:24.005Z,3.30
2018-11-14T17:58:54.106Z,2.37
2018-11-14T18:01:24.496Z,2.47
2018-11-14T18:03:53.749Z,2.10
2018-11-14T18:06:24.014Z,3.00
2018-11-14T18:08:53.529Z,2.57
2018-11-14T18:11:23.611Z,2.20
2018-11-14T18:13:52.804Z,2.63
2018-11-14T18:16:24.242Z,2.80
2018-11-14T18:18:54.576Z,2.67
2018-11-14T18:21:24.005Z,1.93
2018-11-14T18:23:54.797Z,2.40
2018-11-14T18:26:26.090Z,2.17
2018-11-14T18:28:55.789Z,2.20
2018-11-14T18:31:25.312Z,2.63
2018-11-14T18:33:54.999Z,2.20
2018-11-14T18:36:25.289Z,2.20
2018-11-14T18:38:54.778Z,2.00
2018-11-14T18:41:24.585Z,2.40
2018-11-14T18:43:53.975Z,2.20
2018-11-14T18:46:24.231Z,2.07
2018-11-14T18:48:53.646Z,2.57
2018-11-14T18:51:23.049Z,2.70
2018-11-14T18:53:53.466Z,2.30
2018-11-14T18:56:30.115Z,2.37
2018-11-14T18:58:59.770Z,2.33
2018-11-14T19:01:29.278Z,2.47
2018-11-14T19:03:58.136Z,2.27
2018-11-14T19:06:27.816Z,3.17
2018-11-14T19:08:56.661Z,2.10
2018-11-14T19:11:31.350Z,3.10
2018-11-14T19:14:00.649Z,2.73
2018-11-14T19:16:30.249Z,2.27
2018-11-14T19:18:59.635Z,2.70
2018-11-14T19:21:28.631Z,3.07
2018-11-14T19:23:58.026Z,2.20
2018-11-14T19:26:26.821Z,2.40
2018-11-14T19:28:55.638Z,2.27
2018-11-14T19:31:25.226Z,2.67
2018-11-14T19:33:55.689Z,2.20
2018-11-14T19:36:25.495Z,2.20
2018-11-14T19:38:55.260Z,2.57
2018-11-14T19:41:24.597Z,2.60
2018-11-14T19:43:55.330Z,2.53
2018-11-14T19:46:24.910Z,2.57
2018-11-14T19:48:54.309Z,2.83
2018-11-14T19:51:24.130Z,2.60
2018-11-14T19:53:54.647Z,2.80
2018-11-14T19:56:23.896Z,2.47
2018-11-14T19:58:54.452Z,3.07
2018-11-14T20:01:24.985Z,2.67
2018-11-14T20:03:56.688Z,2.60
2018-11-14T20:06:26.290Z,2.60
2018-11-14T20:08:55.635Z,3.10
2018-11-14T20:11:25.624Z,3.07
2018-11-14T20:13:57.111Z,3.53
2018-11-14T20:16:26.623Z,2.47
2018-11-14T20:18:56.054Z,3.00
2018-11-14T20:21:25.364Z,2.43
2018-11-14T20:23:55.478Z,3.13
2018-11-14T20:26:25.153Z,2.50
2018-11-14T20:28:55.272Z,3.90
2018-11-14T20:31:24.939Z,2.37
2018-11-14T20:33:54.365Z,3.40
2018-11-14T20:36:24.507Z,2.07
2018-11-14T20:38:54.510Z,2.97
2018-11-14T20:41:24.761Z,2.30
2018-11-14T20:43:55.138Z,2.87
2018-11-14T20:46:24.823Z,2.60
2018-11-14T20:48:54.905Z,3.17
2018-11-14T20:51:24.563Z,2.50
2018-11-14T20:53:54.966Z,3.23
2018-11-14T20:56:24.699Z,3.20
2018-11-14T20:58:55.357Z,3.20
2018-11-14T21:01:25.458Z,3.33
2018-11-14T21:03:55.033Z,2.57
2018-11-14T21:06:24.929Z,2.87
2018-11-14T21:08:55.383Z,2.50
2018-11-14T21:11:25.333Z,2.87
2018-11-14T21:13:56.073Z,2.80
2018-11-14T21:16:26.369Z,3.77
2018-11-14T21:18:56.491Z,3.27
2018-11-14T21:21:25.568Z,3.30
2018-11-14T21:23:55.496Z,2.40
2018-11-14T21:26:25.891Z,2.80
2018-11-14T21:28:56.489Z,2.73
2018-11-14T21:31:25.453Z,4.13
2018-11-14T21:33:55.983Z,3.07
2018-11-14T21:36:26.009Z,3.30
2018-11-14T21:38:55.590Z,2.77
2018-11-14T21:41:25.350Z,3.20
2018-11-14T21:43:55.147Z,3.07
2018-11-14T21:46:24.691Z,3.43
2018-11-14T21:48:54.502Z,2.73
2018-11-14T21:51:24.225Z,3.50
2018-11-14T21:53:54.351Z,3.40
2018-11-14T21:56:24.118Z,3.37
2018-11-14T21:58:54.441Z,3.20
2018-11-14T22:01:24.528Z,3.23
2018-11-14T22:03:54.019Z,2.97
2018-11-14T22:06:24.764Z,3.00
2018-11-14T22:08:54.696Z,3.07
2018-11-14T22:11:24.522Z,3.30
2018-11-14T22:13:54.402Z,3.00
2018-11-14T22:16:25.050Z,3.17
2018-11-14T22:18:56.004Z,3.47
2018-11-14T22:21:25.923Z,3.40
2018-11-14T22:23:56.301Z,3.07
2018-11-14T22:26:25.422Z,3.70
2018-11-14T22:28:55.159Z,3.33
2018-11-14T22:31:24.861Z,4.03
2018-11-14T22:33:54.519Z,3.67
2018-11-14T22:36:25.066Z,3.70
2018-11-14T22:38:54.907Z,3.17
2018-11-14T22:41:25.291Z,3.80
2018-11-14T22:43:54.932Z,3.50
2018-11-14T22:46:24.478Z,3.73
2018-11-14T22:48:54.698Z,3.03
2018-11-14T22:51:24.394Z,4.07
2018-11-14T22:53:54.609Z,3.80
2018-11-14T22:56:24.091Z,3.17
2018-11-14T22:58:55.384Z,3.50
2018-11-14T23:01:26.059Z,3.60
2018-11-14T23:03:55.976Z,3.50
2018-11-14T23:06:26.621Z,3.40
2018-11-14T23:08:55.634Z,3.30
2018-11-14T23:11:25.795Z,3.60
2018-11-14T23:13:56.435Z,3.37
2018-11-14T23:16:26.923Z,3.40
2018-11-14T23:18:56.646Z,3.47
2018-11-14T23:21:25.820Z,3.97
2018-11-14T23:23:56.036Z,3.43
2018-11-14T23:26:25.830Z,4.13
2018-11-14T23:28:55.530Z,4.10
2018-11-14T23:31:25.051Z,4.10
2018-11-14T23:33:54.826Z,3.77
2018-11-14T23:36:24.597Z,3.40
2018-11-14T23:38:55.026Z,4.13
2018-11-14T23:41:24.686Z,3.60
2018-11-14T23:43:55.151Z,3.83
2018-11-14T23:46:26.467Z,3.93
2018-11-14T23:48:56.274Z,4.83
2018-11-14T23:51:25.455Z,3.57
2018-11-14T23:53:55.933Z,4.70
2018-11-14T23:56:26.491Z,5.03
2018-11-14T23:58:57.811Z,3.97
